Time;durP1;ratioP1;P1;durP2;ratioP2;P2;SDS_P1;SDS_P2;PMS_P1;PMS_P2;Temp;Humidity;BMP_temperature;BMP_pressure;BME280_temperature;BME280_humidity;BME280_pressure;Samples;Min_cycle;Max_cycle;Signal;HPM_P1;HPM_P2
2023/11/18 00:01:17;;;;;;;69.45;40.17;;;5.20;99.90;;;;;;5046778;28;20547;-41
2023/11/18 00:03:42;;;;;;;67.45;38.53;;;5.20;99.90;;;;;;5049086;28;20187;-47
2023/11/18 00:06:08;;;;;;;69.38;39.15;;;5.10;99.90;;;;;;5047418;28;20248;-44
2023/11/18 00:08:34;;;;;;;73.90;39.63;;;5.10;99.90;;;;;;5046322;28;20290;-48
2023/11/18 00:11:00;;;;;;;69.25;38.92;;;5.10;99.90;;;;;;5045639;28;20320;-43
2023/11/18 00:13:26;;;;;;;74.20;41.17;;;5.10;99.90;;;;;;5048384;28;20192;-44
2023/11/18 00:15:52;;;;;;;73.35;39.05;;;5.10;99.90;;;;;;5046146;28;20670;-44
2023/11/18 00:18:18;;;;;;;67.72;38.97;;;5.10;99.90;;;;;;5046951;28;20178;-47
2023/11/18 00:20:45;;;;;;;75.15;41.33;;;5.00;99.90;;;;;;5049689;28;20216;-45
2023/11/18 00:23:11;;;;;;;67.72;38.60;;;5.10;99.90;;;;;;5045700;28;20186;-45
2023/11/18 00:25:39;;;;;;;76.65;40.08;;;5.00;99.90;;;;;;5047732;28;20256;-47
2023/11/18 00:28:07;;;;;;;75.88;39.92;;;5.00;99.90;;;;;;5045676;28;20315;-46
2023/11/18 00:30:36;;;;;;;69.82;38.55;;;5.00;99.90;;;;;;5047317;28;20210;-52
2023/11/18 00:33:02;;;;;;;77.63;38.47;;;5.00;99.90;;;;;;5052769;28;20220;-43
2023/11/18 00:35:30;;;;;;;76.88;40.85;;;5.00;99.90;;;;;;5050900;28;20570;-41
2023/11/18 00:37:55;;;;;;;72.72;39.90;;;5.00;99.90;;;;;;5050455;28;20189;-44
2023/11/18 00:40:22;;;;;;;76.05;39.67;;;5.00;99.90;;;;;;5051080;28;20248;-43
2023/11/18 00:42:48;;;;;;;77.22;38.05;;;4.90;99.90;;;;;;5049063;28;20191;-46
2023/11/18 00:45:14;;;;;;;75.20;39.42;;;5.00;99.90;;;;;;5049563;28;20203;-45
2023/11/18 00:47:41;;;;;;;81.50;40.75;;;5.00;99.90;;;;;;5043513;28;20683;-46
2023/11/18 00:50:10;;;;;;;79.60;40.63;;;4.90;99.90;;;;;;5048696;28;20210;-41
2023/11/18 00:52:41;;;;;;;77.07;39.33;;;4.90;99.90;;;;;;5048542;28;20215;-43
2023/11/18 00:55:12;;;;;;;76.63;40.08;;;4.90;99.90;;;;;;5052881;28;20202;-43
2023/11/18 00:57:41;;;;;;;81.88;40.88;;;5.00;99.90;;;;;;5055157;28;20268;-45
2023/11/18 01:00:13;;;;;;;78.85;40.35;;;4.90;99.90;;;;;;5048822;28;20286;-43
2023/11/18 01:02:41;;;;;;;76.38;40.00;;;4.90;99.90;;;;;;5059472;28;20195;-44
2023/11/18 01:05:09;;;;;;;81.78;41.47;;;4.90;99.90;;;;;;5049810;28;20277;-45
2023/11/18 01:07:35;;;;;;;79.82;40.25;;;4.90;99.90;;;;;;5049281;28;20206;-51
2023/11/18 01:10:02;;;;;;;80.68;41.03;;;4.80;99.90;;;;;;5052098;28;20215;-41
2023/11/18 01:12:28;;;;;;;77.55;41.28;;;4.80;99.90;;;;;;5050464;28;20550;-43
2023/11/18 01:14:54;;;;;;;74.68;39.15;;;4.80;99.90;;;;;;5049643;28;20187;-48
2023/11/18 01:17:22;;;;;;;83.50;40.33;;;4.80;99.90;;;;;;5064059;28;20195;-45
2023/11/18 01:19:48;;;;;;;81.35;41.08;;;4.80;99.90;;;;;;5066411;28;20461;-48
2023/11/18 01:22:13;;;;;;;80.75;39.58;;;4.80;99.90;;;;;;5051959;28;20207;-44
2023/11/18 01:24:39;;;;;;;79.88;41.17;;;4.80;99.90;;;;;;5048601;28;20716;-50
2023/11/18 01:27:09;;;;;;;84.25;41.33;;;4.80;99.90;;;;;;5064934;28;20274;-46
2023/11/18 01:29:41;;;;;;;81.45;42.30;;;4.80;99.90;;;;;;5066043;28;20264;-48
2023/11/18 01:32:09;;;;;;;79.18;40.60;;;4.80;99.90;;;;;;5047189;28;20197;-45
2023/11/18 01:34:39;;;;;;;82.00;40.55;;;4.80;99.90;;;;;;5062706;28;20199;-44
2023/11/18 01:37:07;;;;;;;75.45;40.25;;;4.80;99.90;;;;;;5051492;28;20187;-42
2023/11/18 01:39:35;;;;;;;77.68;40.63;;;4.70;99.90;;;;;;5059119;28;20275;-45
2023/11/18 01:42:02;;;;;;;78.88;40.28;;;4.70;99.90;;;;;;5050946;28;20906;-50
2023/11/18 01:44:29;;;;;;;76.53;40.30;;;4.70;99.90;;;;;;5052527;28;20190;-42
2023/11/18 01:46:57;;;;;;;71.15;39.35;;;4.70;99.90;;;;;;5048758;28;20247;-42
2023/11/18 01:49:23;;;;;;;77.32;41.58;;;4.60;99.90;;;;;;5047249;28;20594;-41
2023/11/18 01:51:53;;;;;;;70.20;38.25;;;4.60;99.90;;;;;;5048992;28;20566;-46
2023/11/18 01:54:21;;;;;;;76.95;38.38;;;4.60;99.90;;;;;;5045439;28;20202;-46
2023/11/18 01:56:51;;;;;;;78.25;39.17;;;4.60;99.90;;;;;;5060051;28;20232;-42
2023/11/18 01:59:20;;;;;;;80.20;39.97;;;4.60;99.90;;;;;;5065564;28;20179;-43
2023/11/18 02:01:54;;;;;;;76.18;40.58;;;4.50;99.90;;;;;;5047620;28;20654;-49
2023/11/18 02:04:20;;;;;;;83.38;42.40;;;4.50;99.90;;;;;;5063233;28;20176;-44
2023/11/18 02:06:49;;;;;;;76.47;39.92;;;4.50;99.90;;;;;;5046699;28;20187;-44
2023/11/18 02:09:27;;;;;;;77.38;40.60;;;4.50;99.90;;;;;;5064168;28;20224;-44
2023/11/18 02:12:00;;;;;;;79.22;41.13;;;4.50;99.90;;;;;;5048402;28;20728;-44
2023/11/18 02:14:28;;;;;;;87.50;41.33;;;4.50;99.90;;;;;;5045614;28;20199;-44
2023/11/18 02:16:59;;;;;;;85.60;40.88;;;4.50;99.90;;;;;;5062389;28;20612;-47
2023/11/18 02:19:27;;;;;;;83.03;41.70;;;4.50;99.90;;;;;;5063124;28;20194;-43
2023/11/18 02:21:54;;;;;;;84.10;40.38;;;4.50;99.90;;;;;;5064306;28;20557;-45
2023/11/18 02:24:33;;;;;;;80.93;39.33;;;4.50;99.90;;;;;;5065518;28;20282;-43
2023/11/18 02:27:00;;;;;;;91.55;40.88;;;4.50;99.90;;;;;;5046258;28;20198;-42
2023/11/18 02:29:36;;;;;;;88.30;40.80;;;4.50;99.90;;;;;;5046649;28;20232;-43
2023/11/18 02:32:26;;;;;;;91.40;42.05;;;4.50;99.90;;;;;;5064722;28;20225;-43
2023/11/18 02:35:02;;;;;;;82.03;40.03;;;4.50;99.90;;;;;;5058701;28;20238;-42
2023/11/18 02:37:32;;;;;;;81.10;41.47;;;4.50;99.90;;;;;;5046004;28;20191;-45
2023/11/18 02:40:14;;;;;;;83.07;40.60;;;4.50;99.90;;;;;;5048896;28;20225;-43
2023/11/18 02:42:45;;;;;;;83.78;41.35;;;4.60;99.90;;;;;;5043375;28;20206;-43
2023/11/18 02:45:16;;;;;;;83.82;41.72;;;4.60;99.90;;;;;;5046662;28;20677;-47
2023/11/18 02:47:44;;;;;;;91.25;41.65;;;4.60;99.90;;;;;;5047998;28;20219;-43
2023/11/18 02:50:10;;;;;;;91.10;41.65;;;4.60;99.90;;;;;;5047197;28;20213;-43
2023/11/18 02:52:37;;;;;;;85.82;41.40;;;4.70;99.90;;;;;;5051686;28;20764;-46
2023/11/18 02:55:08;;;;;;;93.40;43.53;;;4.70;99.90;;;;;;5050501;28;20219;-47
2023/11/18 02:57:35;;;;;;;94.30;45.00;;;4.80;99.90;;;;;;5046138;28;20215;-47
2023/11/18 03:00:00;;;;;;;102.68;45.13;;;4.80;99.90;;;;;;5049077;28;20195;-45
2023/11/18 03:02:30;;;;;;;95.55;42.83;;;4.90;99.90;;;;;;5044462;28;20195;-44
2023/11/18 03:04:56;;;;;;;98.55;43.58;;;4.90;99.90;;;;;;5047890;28;20282;-50
2023/11/18 03:07:22;;;;;;;106.10;44.72;;;5.00;99.90;;;;;;5048779;28;20813;-45
2023/11/18 03:09:48;;;;;;;112.47;45.45;;;5.00;99.90;;;;;;5047920;28;20302;-43
2023/11/18 03:12:14;;;;;;;116.97;43.53;;;5.10;99.90;;;;;;5045564;28;20195;-47
2023/11/18 03:14:40;;;;;;;223.63;43.97;;;5.10;99.90;;;;;;5045911;28;20198;-43
2023/11/18 03:17:06;;;;;;;177.73;43.30;;;5.10;99.90;;;;;;5061181;28;20194;-44
2023/11/18 03:19:34;;;;;;;159.70;41.25;;;5.10;99.90;;;;;;5046150;28;20816;-47
2023/11/18 03:22:01;;;;;;;182.07;40.53;;;5.10;99.90;;;;;;5049430;28;20186;-43
2023/11/18 03:24:28;;;;;;;228.85;43.85;;;5.10;99.90;;;;;;5048698;28;20569;-46
2023/11/18 03:26:57;;;;;;;164.55;40.38;;;5.20;99.90;;;;;;5064690;28;20194;-47
2023/11/18 03:29:23;;;;;;;212.23;38.72;;;5.20;99.90;;;;;;5047980;28;20215;-41
2023/11/18 03:31:49;;;;;;;217.98;40.28;;;5.20;99.90;;;;;;5067712;28;20206;-44
2023/11/18 03:34:19;;;;;;;286.48;40.70;;;5.20;99.90;;;;;;5047655;28;20199;-49
2023/11/18 03:36:48;;;;;;;168.93;39.25;;;5.20;99.90;;;;;;5057818;28;20182;-44
2023/11/18 03:39:14;;;;;;;239.60;39.28;;;5.20;99.90;;;;;;5049102;28;20662;-46
2023/11/18 03:41:44;;;;;;;234.77;38.60;;;5.20;99.90;;;;;;5045703;28;20194;-41
2023/11/18 03:44:13;;;;;;;122.65;38.63;;;5.20;99.90;;;;;;5058043;28;20322;-46
2023/11/18 03:46:41;;;;;;;161.77;37.55;;;5.20;99.90;;;;;;5031840;28;20197;-44
2023/11/18 03:49:07;;;;;;;295.85;40.25;;;5.20;99.90;;;;;;5047114;28;20686;-45
2023/11/18 03:51:32;;;;;;;175.82;37.42;;;5.30;99.90;;;;;;5049466;28;20190;-42
2023/11/18 03:53:58;;;;;;;175.50;36.67;;;5.30;99.90;;;;;;5062740;28;20189;-43
2023/11/18 03:56:26;;;;;;;104.05;37.08;;;5.30;99.90;;;;;;5046133;28;21350;-47
2023/11/18 03:58:53;;;;;;;206.93;37.25;;;5.30;99.90;;;;;;5045948;28;20198;-45
2023/11/18 04:01:23;;;;;;;116.55;35.72;;;5.40;99.90;;;;;;5045835;28;20187;-40
2023/11/18 04:03:50;;;;;;;89.47;35.65;;;5.30;99.90;;;;;;5057471;28;20209;-50
2023/11/18 04:06:17;;;;;;;96.63;36.40;;;5.30;99.90;;;;;;5062868;28;20191;-45
2023/11/18 04:08:46;;;;;;;98.38;36.03;;;5.30;99.90;;;;;;5050093;28;20242;-47
2023/11/18 04:11:13;;;;;;;118.70;36.45;;;5.30;99.90;;;;;;5068585;28;20305;-41
2023/11/18 04:13:43;;;;;;;102.55;33.72;;;5.30;99.90;;;;;;5054360;28;20198;-42
2023/11/18 04:16:13;;;;;;;94.40;34.33;;;5.30;99.90;;;;;;5051496;28;20646;-44
2023/11/18 04:18:40;;;;;;;89.00;35.30;;;5.30;99.90;;;;;;5067479;28;20655;-41
2023/11/18 04:21:10;;;;;;;91.18;34.50;;;5.30;99.90;;;;;;5048637;28;20199;-41
2023/11/18 04:23:41;;;;;;;90.53;35.08;;;5.30;99.90;;;;;;5049689;28;20204;-46
2023/11/18 04:26:07;;;;;;;98.90;33.72;;;5.30;99.90;;;;;;5049860;28;20218;-45
2023/11/18 04:28:34;;;;;;;101.25;33.20;;;5.30;99.90;;;;;;5050835;28;20198;-46
2023/11/18 04:31:01;;;;;;;88.18;33.65;;;5.30;99.90;;;;;;5051173;28;20207;-42
2023/11/18 04:33:29;;;;;;;112.82;34.28;;;5.30;99.90;;;;;;5052087;28;20187;-44
2023/11/18 04:35:57;;;;;;;84.32;31.77;;;5.30;99.90;;;;;;5051978;28;20195;-45
2023/11/18 04:38:23;;;;;;;95.90;33.03;;;5.20;99.90;;;;;;5051178;28;20243;-43
2023/11/18 04:40:49;;;;;;;102.80;33.00;;;5.20;99.90;;;;;;5049082;28;20195;-43
2023/11/18 04:43:15;;;;;;;87.18;31.83;;;5.20;99.90;;;;;;5049377;28;20210;-44
2023/11/18 04:45:44;;;;;;;86.32;32.47;;;5.20;99.90;;;;;;5068602;28;20285;-44
2023/11/18 04:48:13;;;;;;;86.90;33.92;;;5.20;99.90;;;;;;5068159;28;20280;-46
2023/11/18 04:50:42;;;;;;;77.05;32.55;;;5.20;99.90;;;;;;5048532;28;20841;-45
2023/11/18 04:53:10;;;;;;;66.03;32.55;;;5.20;99.90;;;;;;5053069;28;20195;-45
2023/11/18 04:55:36;;;;;;;69.82;32.40;;;5.20;99.90;;;;;;5045622;28;20565;-46
2023/11/18 04:58:02;;;;;;;76.47;32.90;;;5.20;99.90;;;;;;5050223;28;20764;-47
2023/11/18 05:00:28;;;;;;;76.72;32.92;;;5.20;99.90;;;;;;5066088;28;20220;-49
2023/11/18 05:02:54;;;;;;;90.10;33.17;;;5.20;99.90;;;;;;5067487;28;20714;-43
2023/11/18 05:05:22;;;;;;;79.13;32.58;;;5.20;99.90;;;;;;5050497;28;20191;-43
2023/11/18 05:07:47;;;;;;;76.60;33.10;;;5.20;99.90;;;;;;5048655;28;20178;-46
2023/11/18 05:10:13;;;;;;;104.95;33.78;;;5.20;99.90;;;;;;5051417;28;20697;-44
2023/11/18 05:12:40;;;;;;;80.97;32.85;;;5.20;99.90;;;;;;5050721;28;20228;-47
2023/11/18 05:15:07;;;;;;;76.13;32.83;;;5.20;99.90;;;;;;5049659;28;20677;-41
2023/11/18 05:17:37;;;;;;;87.90;32.92;;;5.20;99.90;;;;;;5051071;28;20254;-47
2023/11/18 05:20:04;;;;;;;80.03;32.15;;;5.20;99.90;;;;;;5049832;28;20252;-45
2023/11/18 05:22:30;;;;;;;75.47;31.45;;;5.20;99.90;;;;;;5049668;28;20184;-46
2023/11/18 05:24:57;;;;;;;72.68;31.17;;;5.20;99.90;;;;;;5050895;28;20187;-48
2023/11/18 05:27:23;;;;;;;75.90;30.70;;;5.10;99.90;;;;;;5048889;28;20203;-44
2023/11/18 05:29:54;;;;;;;80.97;31.15;;;5.10;99.90;;;;;;5064280;28;20268;-42
2023/11/18 05:32:23;;;;;;;60.35;29.27;;;5.00;99.90;;;;;;5047627;28;20282;-41
2023/11/18 05:34:53;;;;;;;107.57;32.53;;;5.10;99.90;;;;;;5049303;28;20199;-47
2023/11/18 05:37:21;;;;;;;75.07;31.42;;;5.00;99.90;;;;;;5054510;28;20193;-47
2023/11/18 05:39:49;;;;;;;90.07;29.90;;;5.00;99.90;;;;;;5047576;28;20669;-45
2023/11/18 05:42:15;;;;;;;70.53;31.85;;;5.00;99.90;;;;;;5053826;28;20182;-47
2023/11/18 05:44:42;;;;;;;79.80;31.20;;;5.00;99.90;;;;;;5047921;28;20190;-45
2023/11/18 05:47:11;;;;;;;76.85;31.17;;;5.00;99.90;;;;;;5045787;28;20512;-46
2023/11/18 05:49:40;;;;;;;64.47;30.90;;;5.00;99.90;;;;;;5048905;28;20697;-47
2023/11/18 05:52:07;;;;;;;73.15;31.35;;;5.00;99.90;;;;;;5052262;28;20183;-45
2023/11/18 05:54:33;;;;;;;78.72;32.70;;;5.00;99.90;;;;;;5047912;28;20738;-42
2023/11/18 05:57:01;;;;;;;94.80;32.13;;;4.90;99.90;;;;;;5050795;28;20329;-39
2023/11/18 05:59:27;;;;;;;77.28;30.60;;;4.90;99.90;;;;;;5049972;28;20199;-43
2023/11/18 06:01:53;;;;;;;92.72;32.47;;;5.00;99.90;;;;;;5047913;28;20186;-45
2023/11/18 06:04:20;;;;;;;92.00;32.72;;;5.00;99.90;;;;;;5047812;28;20206;-44
2023/11/18 06:06:47;;;;;;;80.03;31.70;;;4.90;99.90;;;;;;5063076;28;20227;-48
2023/11/18 06:09:20;;;;;;;83.78;31.77;;;5.00;99.90;;;;;;5052919;28;20202;-46
2023/11/18 06:11:47;;;;;;;115.15;32.75;;;5.00;99.90;;;;;;5047412;28;20575;-41
2023/11/18 06:14:13;;;;;;;82.75;31.80;;;5.00;99.90;;;;;;5044468;28;20187;-47
2023/11/18 06:16:41;;;;;;;111.72;33.22;;;5.00;99.90;;;;;;5050747;28;20195;-43
2023/11/18 06:19:08;;;;;;;87.75;33.45;;;5.00;99.90;;;;;;5047898;28;20191;-45
2023/11/18 06:21:34;;;;;;;109.47;31.75;;;5.00;99.90;;;;;;5048286;28;20710;-42
2023/11/18 06:24:00;;;;;;;74.38;32.40;;;5.00;99.90;;;;;;5050370;28;20268;-43
2023/11/18 06:26:27;;;;;;;99.68;32.97;;;5.00;99.90;;;;;;5048114;28;20198;-46
2023/11/18 06:28:54;;;;;;;86.45;33.08;;;5.00;99.90;;;;;;5047007;28;20187;-47
2023/11/18 06:31:20;;;;;;;98.82;32.72;;;5.10;99.90;;;;;;5047771;28;20620;-44
2023/11/18 06:33:48;;;;;;;99.00;32.85;;;5.10;99.90;;;;;;5051357;28;20194;-44
2023/11/18 06:36:14;;;;;;;83.32;32.88;;;5.10;99.90;;;;;;5047772;28;20266;-42
2023/11/18 06:38:41;;;;;;;76.40;33.45;;;5.20;99.90;;;;;;5048396;28;20270;-47
2023/11/18 06:41:12;;;;;;;86.32;34.70;;;5.20;99.90;;;;;;5047148;28;20232;-49
2023/11/18 06:44:00;;;;;;;105.47;34.53;;;5.20;99.90;;;;;;5049660;28;20677;-49
2023/11/18 06:46:33;;;;;;;88.82;33.83;;;5.20;99.90;;;;;;5046946;28;20260;-44
2023/11/18 06:49:04;;;;;;;88.53;34.50;;;5.20;99.90;;;;;;5046724;28;20219;-45
2023/11/18 06:51:34;;;;;;;96.28;33.88;;;5.30;99.90;;;;;;5046053;28;20563;-47
2023/11/18 06:54:08;;;;;;;96.65;33.85;;;5.20;99.90;;;;;;5067145;28;20186;-46
2023/11/18 06:56:38;;;;;;;118.80;35.28;;;5.30;99.90;;;;;;5047349;28;20721;-41
2023/11/18 06:59:07;;;;;;;94.88;34.58;;;5.30;99.90;;;;;;5047425;28;20187;-42
2023/11/18 07:01:35;;;;;;;99.32;36.72;;;5.40;99.90;;;;;;5048299;28;20187;-41
2023/11/18 07:04:01;;;;;;;107.30;35.25;;;5.40;99.90;;;;;;5047979;28;20190;-44
2023/11/18 07:06:27;;;;;;;90.05;36.15;;;5.40;99.90;;;;;;5045617;28;20195;-42
2023/11/18 07:08:54;;;;;;;96.10;36.60;;;5.50;99.90;;;;;;5048156;28;20202;-44
2023/11/18 07:11:20;;;;;;;112.80;35.83;;;5.40;99.90;;;;;;5047299;28;20223;-44
2023/11/18 07:13:47;;;;;;;95.07;38.53;;;5.50;99.90;;;;;;5063709;28;20179;-49
2023/11/18 07:16:14;;;;;;;121.90;37.42;;;5.50;99.90;;;;;;5051300;28;20234;-49
2023/11/18 07:18:44;;;;;;;78.22;36.58;;;5.50;99.90;;;;;;5043505;28;20202;-55
2023/11/18 07:21:10;;;;;;;115.20;38.35;;;5.50;99.90;;;;;;5044454;28;20332;-53
2023/11/18 07:23:36;;;;;;;145.73;39.33;;;5.60;99.90;;;;;;5043031;28;21049;-52
2023/11/18 07:26:05;;;;;;;113.85;39.55;;;5.60;99.90;;;;;;5045066;28;20198;-52
2023/11/18 07:28:31;;;;;;;121.32;38.55;;;5.60;99.90;;;;;;5044735;28;20475;-53
2023/11/18 07:30:58;;;;;;;117.90;38.03;;;5.60;99.90;;;;;;5043535;28;20257;-51
2023/11/18 07:33:24;;;;;;;98.45;39.10;;;5.60;99.90;;;;;;5045037;28;20190;-52
2023/11/18 07:35:50;;;;;;;119.03;40.13;;;5.60;99.90;;;;;;5045587;28;20190;-49
2023/11/18 07:38:17;;;;;;;123.90;38.35;;;5.70;99.90;;;;;;5044736;28;20634;-54
2023/11/18 07:40:45;;;;;;;96.07;38.65;;;5.70;99.90;;;;;;5047460;28;20195;-49
2023/11/18 07:43:12;;;;;;;110.07;39.22;;;5.70;99.90;;;;;;5049423;28;20191;-49
2023/11/18 07:45:39;;;;;;;87.00;40.40;;;5.70;99.90;;;;;;5049231;28;20193;-46
2023/11/18 07:48:09;;;;;;;108.70;40.58;;;5.80;99.90;;;;;;5050516;28;20288;-49
2023/11/18 07:50:36;;;;;;;93.03;40.58;;;5.80;99.90;;;;;;5047634;28;20210;-53
2023/11/18 07:53:02;;;;;;;108.78;40.55;;;5.80;99.90;;;;;;5047599;28;20203;-50
2023/11/18 07:55:34;;;;;;;108.90;41.63;;;5.80;99.90;;;;;;5051680;28;20249;-46
2023/11/18 07:58:03;;;;;;;90.25;40.17;;;5.80;99.90;;;;;;5048631;28;20195;-52
2023/11/18 08:00:33;;;;;;;89.90;40.00;;;5.90;99.90;;;;;;5049514;28;20198;-52
2023/11/18 08:03:00;;;;;;;95.75;40.28;;;5.90;99.90;;;;;;5049044;28;20191;-50
2023/11/18 08:05:31;;;;;;;103.70;39.85;;;6.00;99.90;;;;;;5050586;28;20655;-46
2023/11/18 08:07:58;;;;;;;97.47;39.63;;;6.00;99.90;;;;;;5050245;28;20213;-49
2023/11/18 08:10:24;;;;;;;101.25;41.10;;;6.10;99.90;;;;;;5052303;28;20262;-49
2023/11/18 08:12:51;;;;;;;87.75;41.22;;;6.10;99.90;;;;;;5048329;28;20435;-47
2023/11/18 08:15:18;;;;;;;94.97;39.22;;;6.10;99.90;;;;;;5050015;28;20237;-51
2023/11/18 08:17:44;;;;;;;97.57;41.13;;;6.10;99.90;;;;;;5049478;28;20194;-47
2023/11/18 08:20:14;;;;;;;95.60;38.97;;;6.10;99.90;;;;;;5050912;28;20187;-49
2023/11/18 08:22:46;;;;;;;88.85;39.20;;;6.20;99.90;;;;;;5046553;28;20195;-48
2023/11/18 08:25:12;;;;;;;102.60;40.72;;;6.20;99.90;;;;;;5048491;28;20635;-55
2023/11/18 08:27:41;;;;;;;103.43;42.38;;;6.20;99.90;;;;;;5052608;28;20208;-50
2023/11/18 08:30:11;;;;;;;102.03;41.83;;;6.20;99.90;;;;;;5046490;28;20246;-47
2023/11/18 08:32:39;;;;;;;97.45;40.78;;;6.30;99.90;;;;;;5053796;28;20240;-47
2023/11/18 08:35:09;;;;;;;96.10;40.97;;;6.30;99.90;;;;;;5052056;28;20187;-52
2023/11/18 08:37:38;;;;;;;94.50;40.53;;;6.30;99.90;;;;;;5050055;28;20596;-51
2023/11/18 08:40:06;;;;;;;89.97;39.90;;;6.30;99.90;;;;;;5047099;28;20190;-49
2023/11/18 08:42:34;;;;;;;87.03;40.90;;;6.30;99.90;;;;;;5053089;28;20191;-46
2023/11/18 08:45:00;;;;;;;97.18;39.00;;;6.30;99.90;;;;;;5051339;28;20681;-52
2023/11/18 08:47:31;;;;;;;88.90;40.95;;;6.40;99.90;;;;;;5048065;28;20239;-49
2023/11/18 08:49:57;;;;;;;93.03;38.63;;;6.40;99.90;;;;;;5047881;28;20215;-46
2023/11/18 08:52:25;;;;;;;91.18;41.97;;;6.40;99.90;;;;;;5050000;28;20188;-51
2023/11/18 08:55:38;;;;;;;91.43;39.75;;;6.40;99.90;;;;;;5047198;28;20653;-55
2023/11/18 08:58:15;;;;;;;100.18;41.17;;;6.40;99.90;;;;;;5042962;28;20891;-52
2023/11/18 09:01:14;;;;;;;99.47;41.67;;;6.40;99.90;;;;;;5050151;28;20202;-52
2023/11/18 09:03:24;;;;;;;95.88;41.05;;;6.50;99.90;;;;;;5048760;28;20202;-50
2023/11/18 09:05:58;;;;;;;91.20;40.42;;;6.40;99.90;;;;;;5046094;28;20601;-52
2023/11/18 09:08:34;;;;;;;94.40;41.20;;;6.50;99.90;;;;;;5049237;28;20206;-53
2023/11/18 09:11:06;;;;;;;106.18;41.85;;;6.50;99.90;;;;;;5050008;28;20267;-49
2023/11/18 09:13:34;;;;;;;91.88;40.42;;;6.50;99.90;;;;;;5049321;28;20175;-53
2023/11/18 09:16:10;;;;;;;93.13;42.30;;;6.50;99.90;;;;;;5049561;28;20241;-51
2023/11/18 09:18:41;;;;;;;98.57;41.97;;;6.50;99.90;;;;;;5049694;28;20191;-50
2023/11/18 09:21:07;;;;;;;103.32;44.28;;;6.50;99.90;;;;;;5050317;28;20198;-49
2023/11/18 09:23:34;;;;;;;99.25;42.80;;;6.60;99.90;;;;;;5049569;28;20195;-49
2023/11/18 09:26:02;;;;;;;103.22;41.65;;;6.60;99.90;;;;;;5045429;28;20259;-55
2023/11/18 09:28:29;;;;;;;110.07;42.47;;;6.60;99.90;;;;;;5062117;28;20554;-48
2023/11/18 09:30:58;;;;;;;107.68;42.75;;;6.60;99.90;;;;;;5049443;28;20218;-51
2023/11/18 09:33:25;;;;;;;109.13;43.33;;;6.70;99.90;;;;;;5046703;28;20279;-54
2023/11/18 09:36:01;;;;;;;103.32;43.50;;;6.70;99.90;;;;;;5047461;28;20661;-52
2023/11/18 09:38:28;;;;;;;97.28;43.95;;;6.70;99.90;;;;;;5049039;28;20720;-47
2023/11/18 09:40:54;;;;;;;110.70;44.47;;;6.70;99.90;;;;;;5044955;28;20183;-51
2023/11/18 09:43:23;;;;;;;104.63;43.15;;;6.70;99.90;;;;;;5063320;28;20662;-52
2023/11/18 09:45:55;;;;;;;98.57;43.17;;;6.80;99.90;;;;;;5047666;28;20187;-52
2023/11/18 09:48:25;;;;;;;107.30;43.60;;;6.70;99.90;;;;;;5047966;28;20701;-52
2023/11/18 09:50:52;;;;;;;97.28;43.38;;;6.70;99.90;;;;;;5048652;28;20235;-55
2023/11/18 09:53:19;;;;;;;101.00;45.45;;;6.70;99.90;;;;;;5046389;28;20187;-48
2023/11/18 09:55:55;;;;;;;102.47;44.85;;;6.80;99.90;;;;;;5050790;28;20214;-49
2023/11/18 09:58:24;;;;;;;100.25;43.28;;;6.70;99.90;;;;;;5049523;28;20709;-48
2023/11/18 10:00:56;;;;;;;101.60;43.13;;;6.80;99.90;;;;;;5065086;28;20257;-49
2023/11/18 10:03:22;;;;;;;101.20;42.17;;;6.70;99.90;;;;;;5047355;28;20191;-51
2023/11/18 10:05:53;;;;;;;96.82;42.55;;;6.70;99.90;;;;;;5048148;28;20249;-52
2023/11/18 10:08:25;;;;;;;103.90;43.03;;;6.80;99.90;;;;;;5045946;28;20187;-49
2023/11/18 10:10:51;;;;;;;99.03;43.60;;;6.80;99.90;;;;;;5049820;28;20206;-53
2023/11/18 10:13:22;;;;;;;98.60;42.95;;;6.80;99.90;;;;;;5049670;28;20525;-48
2023/11/18 10:15:53;;;;;;;92.75;42.17;;;6.80;99.90;;;;;;5046867;28;20187;-52
2023/11/18 10:18:23;;;;;;;104.95;44.05;;;6.80;99.90;;;;;;5047743;28;20216;-51
2023/11/18 10:20:51;;;;;;;98.75;42.63;;;6.80;99.90;;;;;;5046921;28;20234;-50
2023/11/18 10:23:19;;;;;;;101.43;44.15;;;6.80;99.90;;;;;;5064065;28;20187;-50
2023/11/18 10:26:00;;;;;;;99.15;43.78;;;6.80;99.90;;;;;;5048594;28;20274;-54
2023/11/18 10:28:33;;;;;;;109.22;47.30;;;6.80;99.90;;;;;;5048809;28;20183;-49
2023/11/18 10:31:04;;;;;;;92.82;42.42;;;6.80;99.90;;;;;;5048389;28;20211;-53
2023/11/18 10:33:38;;;;;;;99.40;45.10;;;6.80;99.90;;;;;;5045028;28;20187;-52
2023/11/18 10:36:07;;;;;;;99.65;45.22;;;6.80;99.90;;;;;;5048206;28;20428;-53
2023/11/18 10:38:48;;;;;;;93.93;44.83;;;6.80;99.90;;;;;;5048166;28;20280;-51
2023/11/18 10:41:16;;;;;;;90.97;44.42;;;6.70;99.90;;;;;;5045749;28;20293;-48
2023/11/18 10:43:44;;;;;;;91.68;44.67;;;6.70;99.90;;;;;;5048735;28;20271;-49
2023/11/18 10:46:13;;;;;;;95.95;45.75;;;6.70;99.90;;;;;;5045003;28;20282;-52
2023/11/18 10:48:49;;;;;;;89.80;45.40;;;6.70;99.90;;;;;;5050055;28;20314;-52
2023/11/18 10:51:23;;;;;;;88.50;44.28;;;6.60;99.90;;;;;;5049165;28;20210;-49
2023/11/18 10:54:00;;;;;;;84.13;43.47;;;6.70;99.90;;;;;;5048350;28;20227;-49
2023/11/18 10:56:28;;;;;;;84.18;44.13;;;6.70;99.90;;;;;;5048968;28;20245;-51
2023/11/18 10:58:57;;;;;;;87.40;43.75;;;6.70;99.90;;;;;;5045384;28;20214;-54
2023/11/18 11:01:33;;;;;;;86.22;43.65;;;6.70;99.90;;;;;;5049362;28;20191;-51
2023/11/18 11:04:00;;;;;;;82.63;43.38;;;6.70;99.90;;;;;;5047597;28;20213;-55
2023/11/18 11:06:33;;;;;;;87.55;44.78;;;6.70;99.90;;;;;;5045756;28;20234;-55
2023/11/18 11:08:59;;;;;;;77.55;42.17;;;6.70;99.90;;;;;;5045119;28;20568;-49
2023/11/18 11:11:37;;;;;;;81.70;44.05;;;6.70;99.90;;;;;;5049432;28;20215;-51
2023/11/18 11:14:05;;;;;;;74.47;42.05;;;6.70;99.90;;;;;;5047169;28;20513;-48
2023/11/18 11:16:43;;;;;;;78.82;41.63;;;6.70;99.90;;;;;;5049062;28;20198;-47
2023/11/18 11:19:22;;;;;;;71.38;41.08;;;6.70;99.90;;;;;;5047407;28;20222;-54
2023/11/18 11:22:01;;;;;;;81.75;40.38;;;6.80;99.90;;;;;;5046442;28;20244;-49
2023/11/18 11:24:57;;;;;;;77.35;40.45;;;6.80;99.90;;;;;;5048308;28;20194;-49
2023/11/18 11:27:39;;;;;;;76.32;40.05;;;6.80;99.90;;;;;;5046969;28;20191;-49
2023/11/18 11:30:13;;;;;;;69.63;38.80;;;6.80;99.90;;;;;;5049029;28;20387;-53
2023/11/18 11:32:58;;;;;;;68.05;39.30;;;6.80;99.90;;;;;;5045311;28;20245;-52
2023/11/18 11:35:31;;;;;;;70.10;37.72;;;6.80;99.90;;;;;;5057220;28;20195;-49
2023/11/18 11:38:04;;;;;;;67.38;35.88;;;6.80;99.90;;;;;;5046751;28;20191;-51
2023/11/18 11:40:36;;;;;;;62.05;36.38;;;6.80;99.90;;;;;;5063172;28;20179;-51
2023/11/18 11:43:04;;;;;;;68.78;38.30;;;6.80;99.90;;;;;;5045435;28;20194;-53
2023/11/18 11:45:30;;;;;;;62.20;35.55;;;6.90;99.90;;;;;;5048275;28;20190;-51
2023/11/18 11:48:19;;;;;;;60.80;35.03;;;6.90;99.90;;;;;;5046669;28;20569;-51
2023/11/18 11:51:20;;;;;;;64.72;35.17;;;6.90;99.90;;;;;;5044915;28;20265;-50
2023/11/18 11:53:53;;;;;;;63.63;34.08;;;6.90;99.90;;;;;;5046601;28;20182;-49
2023/11/18 11:56:24;;;;;;;58.33;34.03;;;6.90;99.90;;;;;;5048716;28;20187;-55
2023/11/18 11:58:53;;;;;;;61.53;33.58;;;6.90;99.90;;;;;;5045262;28;20665;-50
2023/11/18 12:01:33;;;;;;;59.60;33.08;;;7.00;99.90;;;;;;5046592;28;20198;-50
2023/11/18 12:04:06;;;;;;;55.47;33.55;;;7.00;99.90;;;;;;5046782;28;20631;-48
2023/11/18 12:06:35;;;;;;;54.13;31.73;;;7.10;99.90;;;;;;5047012;28;20191;-49
2023/11/18 12:09:07;;;;;;;53.70;30.50;;;7.10;99.90;;;;;;5046085;28;20225;-50
2023/11/18 12:11:41;;;;;;;50.10;29.30;;;7.10;99.90;;;;;;5044707;28;20239;-50
2023/11/18 12:14:42;;;;;;;52.42;30.52;;;7.10;99.90;;;;;;5045925;28;20206;-51
2023/11/18 12:19:48;;;;;;;51.80;28.00;;;7.10;99.90;;;;;;5045427;28;20203;-50
2023/11/18 12:22:26;;;;;;;49.88;27.90;;;7.20;99.90;;;;;;5046506;28;20722;-56
2023/11/18 12:24:57;;;;;;;49.55;27.08;;;7.20;99.90;;;;;;5050402;28;20197;-52
2023/11/18 12:27:51;;;;;;;53.28;27.52;;;7.20;99.90;;;;;;5048376;28;20187;-50
2023/11/18 12:30:41;;;;;;;51.75;28.45;;;7.20;99.90;;;;;;5050326;28;20642;-51
2023/11/18 12:33:08;;;;;;;40.72;23.38;;;7.30;99.90;;;;;;5051395;28;20191;-54
2023/11/18 12:35:59;;;;;;;50.22;24.80;;;7.30;99.90;;;;;;5067102;28;20186;-54
2023/11/18 12:38:59;;;;;;;45.63;23.23;;;7.40;99.90;;;;;;5050732;28;20375;-51
2023/11/18 12:41:28;;;;;;;41.38;24.10;;;7.40;99.90;;;;;;5050074;28;20228;-48
2023/11/18 12:44:22;;;;;;;47.97;25.13;;;7.40;99.90;;;;;;5049995;28;20250;-49
2023/11/18 12:46:50;;;;;;;43.17;25.20;;;7.40;99.90;;;;;;5068938;28;20197;-50
2023/11/18 12:49:23;;;;;;;43.40;24.52;;;7.40;99.90;;;;;;5049640;28;20957;-53